sensor_id;sensor_type;location;lat;lon;timestamp;P1;durP1;ratioP1;P2;durP2;ratioP2
60292;SDS011;52402;52.670;6.750;2024-01-10T00:01:45;3.58;;;3.35;;
60292;SDS011;52402;52.670;6.750;2024-01-10T00:04:11;3.60;;;3.35;;
60292;SDS011;52402;52.670;6.750;2024-01-10T00:06:36;3.78;;;3.47;;
60292;SDS011;52402;52.670;6.750;2024-01-10T00:09:03;3.40;;;3.20;;
60292;SDS011;52402;52.670;6.750;2024-01-10T00:11:28;3.53;;;3.33;;
60292;SDS011;52402;52.670;6.750;2024-01-10T00:13:54;3.80;;;3.50;;
60292;SDS011;52402;52.670;6.750;2024-01-10T00:18:54;3.33;;;3.13;;
60292;SDS011;52402;52.670;6.750;2024-01-10T00:21:20;4.22;;;3.92;;
60292;SDS011;52402;52.670;6.750;2024-01-10T00:23:45;3.92;;;3.63;;
60292;SDS011;52402;52.670;6.750;2024-01-10T00:26:11;3.47;;;3.28;;
60292;SDS011;52402;52.670;6.750;2024-01-10T00:28:36;3.25;;;3.05;;
60292;SDS011;52402;52.670;6.750;2024-01-10T00:31:02;3.25;;;3.05;;
60292;SDS011;52402;52.670;6.750;2024-01-10T00:33:28;3.90;;;3.60;;
60292;SDS011;52402;52.670;6.750;2024-01-10T00:35:55;3.55;;;3.33;;
60292;SDS011;52402;52.670;6.750;2024-01-10T00:38:20;3.67;;;3.40;;
60292;SDS011;52402;52.670;6.750;2024-01-10T00:40:46;3.40;;;3.20;;
60292;SDS011;52402;52.670;6.750;2024-01-10T00:43:11;3.30;;;3.10;;
60292;SDS011;52402;52.670;6.750;2024-01-10T00:45:37;3.15;;;2.95;;
60292;SDS011;52402;52.670;6.750;2024-01-10T00:48:03;3.38;;;3.17;;
60292;SDS011;52402;52.670;6.750;2024-01-10T00:50:28;3.40;;;3.20;;
60292;SDS011;52402;52.670;6.750;2024-01-10T00:52:54;3.40;;;3.20;;
60292;SDS011;52402;52.670;6.750;2024-01-10T00:55:20;3.40;;;3.20;;
60292;SDS011;52402;52.670;6.750;2024-01-10T00:57:46;3.20;;;3.00;;
60292;SDS011;52402;52.670;6.750;2024-01-10T01:00:12;3.25;;;3.05;;
60292;SDS011;52402;52.670;6.750;2024-01-10T01:02:38;3.17;;;2.97;;
60292;SDS011;52402;52.670;6.750;2024-01-10T01:05:15;3.00;;;2.80;;
60292;SDS011;52402;52.670;6.750;2024-01-10T01:07:40;3.00;;;2.80;;
60292;SDS011;52402;52.670;6.750;2024-01-10T01:10:06;3.40;;;3.20;;
60292;SDS011;52402;52.670;6.750;2024-01-10T01:12:35;3.05;;;2.85;;
60292;SDS011;52402;52.670;6.750;2024-01-10T01:15:01;2.55;;;2.35;;
60292;SDS011;52402;52.670;6.750;2024-01-10T01:17:28;2.95;;;2.75;;
60292;SDS011;52402;52.670;6.750;2024-01-10T01:19:54;2.58;;;2.38;;
60292;SDS011;52402;52.670;6.750;2024-01-10T01:22:20;3.38;;;3.17;;
60292;SDS011;52402;52.670;6.750;2024-01-10T01:24:47;3.15;;;2.95;;
60292;SDS011;52402;52.670;6.750;2024-01-10T01:27:12;3.33;;;3.13;;
60292;SDS011;52402;52.670;6.750;2024-01-10T01:29:42;3.00;;;2.80;;
60292;SDS011;52402;52.670;6.750;2024-01-10T01:32:08;3.28;;;3.08;;
60292;SDS011;52402;52.670;6.750;2024-01-10T01:34:34;3.30;;;3.10;;
60292;SDS011;52402;52.670;6.750;2024-01-10T01:36:59;2.88;;;2.67;;
60292;SDS011;52402;52.670;6.750;2024-01-10T01:39:26;3.10;;;2.90;;
60292;SDS011;52402;52.670;6.750;2024-01-10T01:41:51;3.38;;;3.17;;
60292;SDS011;52402;52.670;6.750;2024-01-10T01:44:17;3.25;;;3.05;;
60292;SDS011;52402;52.670;6.750;2024-01-10T01:49:27;3.25;;;3.05;;
60292;SDS011;52402;52.670;6.750;2024-01-10T01:51:54;3.35;;;3.15;;
60292;SDS011;52402;52.670;6.750;2024-01-10T01:54:20;3.03;;;2.83;;
60292;SDS011;52402;52.670;6.750;2024-01-10T01:56:46;3.30;;;3.10;;
60292;SDS011;52402;52.670;6.750;2024-01-10T01:59:12;2.85;;;2.65;;
60292;SDS011;52402;52.670;6.750;2024-01-10T02:01:39;3.30;;;3.10;;
60292;SDS011;52402;52.670;6.750;2024-01-10T02:04:05;3.20;;;3.00;;
60292;SDS011;52402;52.670;6.750;2024-01-10T02:06:32;2.88;;;2.67;;
60292;SDS011;52402;52.670;6.750;2024-01-10T02:08:57;3.60;;;3.35;;
60292;SDS011;52402;52.670;6.750;2024-01-10T02:11:24;3.15;;;2.95;;
60292;SDS011;52402;52.670;6.750;2024-01-10T02:13:50;3.30;;;3.10;;
60292;SDS011;52402;52.670;6.750;2024-01-10T02:16:19;2.95;;;2.75;;
60292;SDS011;52402;52.670;6.750;2024-01-10T02:18:45;3.10;;;2.90;;
60292;SDS011;52402;52.670;6.750;2024-01-10T02:21:11;2.83;;;2.63;;
60292;SDS011;52402;52.670;6.750;2024-01-10T02:23:36;2.78;;;2.58;;
60292;SDS011;52402;52.670;6.750;2024-01-10T02:26:02;3.00;;;2.80;;
60292;SDS011;52402;52.670;6.750;2024-01-10T02:28:27;2.70;;;2.50;;
60292;SDS011;52402;52.670;6.750;2024-01-10T02:30:53;3.25;;;3.05;;
60292;SDS011;52402;52.670;6.750;2024-01-10T02:33:20;2.65;;;2.45;;
60292;SDS011;52402;52.670;6.750;2024-01-10T02:35:46;2.85;;;2.65;;
60292;SDS011;52402;52.670;6.750;2024-01-10T02:38:11;3.38;;;3.17;;
60292;SDS011;52402;52.670;6.750;2024-01-10T02:40:37;2.92;;;2.72;;
60292;SDS011;52402;52.670;6.750;2024-01-10T02:43:02;3.03;;;2.83;;
60292;SDS011;52402;52.670;6.750;2024-01-10T02:45:28;2.72;;;2.53;;
60292;SDS011;52402;52.670;6.750;2024-01-10T02:47:54;2.72;;;2.53;;
60292;SDS011;52402;52.670;6.750;2024-01-10T02:50:19;3.00;;;2.80;;
60292;SDS011;52402;52.670;6.750;2024-01-10T02:52:45;3.08;;;2.88;;
60292;SDS011;52402;52.670;6.750;2024-01-10T02:55:11;3.03;;;2.83;;
60292;SDS011;52402;52.670;6.750;2024-01-10T02:57:36;2.88;;;2.67;;
60292;SDS011;52402;52.670;6.750;2024-01-10T03:00:02;3.00;;;2.80;;
60292;SDS011;52402;52.670;6.750;2024-01-10T03:02:30;3.25;;;3.05;;
60292;SDS011;52402;52.670;6.750;2024-01-10T03:04:56;3.10;;;2.90;;
60292;SDS011;52402;52.670;6.750;2024-01-10T03:07:21;2.65;;;2.45;;
60292;SDS011;52402;52.670;6.750;2024-01-10T03:09:49;3.20;;;3.00;;
60292;SDS011;52402;52.670;6.750;2024-01-10T03:12:15;3.13;;;2.92;;
60292;SDS011;52402;52.670;6.750;2024-01-10T03:14:41;2.80;;;2.60;;
60292;SDS011;52402;52.670;6.750;2024-01-10T03:17:06;2.75;;;2.55;;
60292;SDS011;52402;52.670;6.750;2024-01-10T03:19:32;2.97;;;2.78;;
60292;SDS011;52402;52.670;6.750;2024-01-10T03:21:58;2.85;;;2.65;;
60292;SDS011;52402;52.670;6.750;2024-01-10T03:24:23;2.92;;;2.72;;
60292;SDS011;52402;52.670;6.750;2024-01-10T03:26:52;2.60;;;2.40;;
60292;SDS011;52402;52.670;6.750;2024-01-10T03:29:17;2.88;;;2.67;;
60292;SDS011;52402;52.670;6.750;2024-01-10T03:31:43;3.10;;;2.90;;
60292;SDS011;52402;52.670;6.750;2024-01-10T03:34:09;3.05;;;2.85;;
60292;SDS011;52402;52.670;6.750;2024-01-10T03:36:34;2.90;;;2.70;;
60292;SDS011;52402;52.670;6.750;2024-01-10T03:39:00;3.28;;;3.08;;
60292;SDS011;52402;52.670;6.750;2024-01-10T03:41:26;2.95;;;2.75;;
60292;SDS011;52402;52.670;6.750;2024-01-10T03:43:51;2.80;;;2.60;;
60292;SDS011;52402;52.670;6.750;2024-01-10T03:46:17;2.70;;;2.50;;
60292;SDS011;52402;52.670;6.750;2024-01-10T03:48:43;2.60;;;2.40;;
60292;SDS011;52402;52.670;6.750;2024-01-10T03:51:16;2.70;;;2.50;;
60292;SDS011;52402;52.670;6.750;2024-01-10T03:53:43;2.60;;;2.40;;
60292;SDS011;52402;52.670;6.750;2024-01-10T03:56:09;2.42;;;2.30;;
60292;SDS011;52402;52.670;6.750;2024-01-10T03:58:35;2.60;;;2.40;;
60292;SDS011;52402;52.670;6.750;2024-01-10T04:01:04;2.70;;;2.50;;
60292;SDS011;52402;52.670;6.750;2024-01-10T04:03:33;2.80;;;2.60;;
60292;SDS011;52402;52.670;6.750;2024-01-10T04:06:00;2.38;;;2.28;;
60292;SDS011;52402;52.670;6.750;2024-01-10T04:08:26;2.33;;;2.22;;
60292;SDS011;52402;52.670;6.750;2024-01-10T04:10:51;2.47;;;2.33;;
60292;SDS011;52402;52.670;6.750;2024-01-10T04:13:17;2.58;;;2.38;;
60292;SDS011;52402;52.670;6.750;2024-01-10T04:15:43;2.60;;;2.40;;
60292;SDS011;52402;52.670;6.750;2024-01-10T04:18:08;2.65;;;2.45;;
60292;SDS011;52402;52.670;6.750;2024-01-10T04:20:34;2.20;;;2.10;;
60292;SDS011;52402;52.670;6.750;2024-01-10T04:22:59;2.70;;;2.50;;
60292;SDS011;52402;52.670;6.750;2024-01-10T04:25:25;2.67;;;2.47;;
60292;SDS011;52402;52.670;6.750;2024-01-10T04:27:51;2.30;;;2.20;;
60292;SDS011;52402;52.670;6.750;2024-01-10T04:30:16;2.40;;;2.30;;
60292;SDS011;52402;52.670;6.750;2024-01-10T04:32:42;2.60;;;2.40;;
60292;SDS011;52402;52.670;6.750;2024-01-10T04:35:08;2.80;;;2.60;;
60292;SDS011;52402;52.670;6.750;2024-01-10T04:37:33;2.80;;;2.60;;
60292;SDS011;52402;52.670;6.750;2024-01-10T04:39:59;2.80;;;2.60;;
60292;SDS011;52402;52.670;6.750;2024-01-10T04:42:24;3.03;;;2.83;;
60292;SDS011;52402;52.670;6.750;2024-01-10T04:44:50;2.75;;;2.55;;
60292;SDS011;52402;52.670;6.750;2024-01-10T04:47:16;2.65;;;2.45;;
60292;SDS011;52402;52.670;6.750;2024-01-10T04:49:41;2.78;;;2.58;;
60292;SDS011;52402;52.670;6.750;2024-01-10T04:52:07;2.80;;;2.60;;
60292;SDS011;52402;52.670;6.750;2024-01-10T04:54:32;2.30;;;2.20;;
60292;SDS011;52402;52.670;6.750;2024-01-10T04:56:59;2.90;;;2.70;;
60292;SDS011;52402;52.670;6.750;2024-01-10T04:59:24;2.67;;;2.47;;
60292;SDS011;52402;52.670;6.750;2024-01-10T05:01:50;2.70;;;2.50;;
60292;SDS011;52402;52.670;6.750;2024-01-10T05:04:16;2.70;;;2.50;;
60292;SDS011;52402;52.670;6.750;2024-01-10T05:06:42;2.65;;;2.45;;
60292;SDS011;52402;52.670;6.750;2024-01-10T05:09:07;2.45;;;2.30;;
60292;SDS011;52402;52.670;6.750;2024-01-10T05:11:34;2.88;;;2.67;;
60292;SDS011;52402;52.670;6.750;2024-01-10T05:14:01;2.60;;;2.40;;
60292;SDS011;52402;52.670;6.750;2024-01-10T05:16:26;2.60;;;2.40;;
60292;SDS011;52402;52.670;6.750;2024-01-10T05:18:52;2.88;;;2.67;;
60292;SDS011;52402;52.670;6.750;2024-01-10T05:21:18;2.78;;;2.58;;
60292;SDS011;52402;52.670;6.750;2024-01-10T05:23:43;2.47;;;2.30;;
60292;SDS011;52402;52.670;6.750;2024-01-10T05:26:09;2.40;;;2.30;;
60292;SDS011;52402;52.670;6.750;2024-01-10T05:28:35;2.63;;;2.42;;
60292;SDS011;52402;52.670;6.750;2024-01-10T05:31:00;2.70;;;2.50;;
60292;SDS011;52402;52.670;6.750;2024-01-10T05:33:26;2.33;;;2.22;;
60292;SDS011;52402;52.670;6.750;2024-01-10T05:35:52;2.17;;;2.08;;
60292;SDS011;52402;52.670;6.750;2024-01-10T05:38:18;2.75;;;2.55;;
60292;SDS011;52402;52.670;6.750;2024-01-10T05:40:43;2.50;;;2.33;;
60292;SDS011;52402;52.670;6.750;2024-01-10T05:43:09;2.47;;;2.33;;
60292;SDS011;52402;52.670;6.750;2024-01-10T05:45:37;2.65;;;2.45;;
60292;SDS011;52402;52.670;6.750;2024-01-10T05:48:03;2.70;;;2.50;;
60292;SDS011;52402;52.670;6.750;2024-01-10T05:50:29;2.65;;;2.45;;
60292;SDS011;52402;52.670;6.750;2024-01-10T05:52:55;2.70;;;2.50;;
60292;SDS011;52402;52.670;6.750;2024-01-10T05:55:21;2.45;;;2.30;;
60292;SDS011;52402;52.670;6.750;2024-01-10T05:57:48;2.28;;;2.17;;
60292;SDS011;52402;52.670;6.750;2024-01-10T06:00:14;2.58;;;2.38;;
60292;SDS011;52402;52.670;6.750;2024-01-10T06:02:41;2.63;;;2.42;;
60292;SDS011;52402;52.670;6.750;2024-01-10T06:05:08;2.30;;;2.20;;
60292;SDS011;52402;52.670;6.750;2024-01-10T06:07:40;2.20;;;2.10;;
60292;SDS011;52402;52.670;6.750;2024-01-10T06:10:06;2.28;;;2.17;;
60292;SDS011;52402;52.670;6.750;2024-01-10T06:12:32;2.40;;;2.30;;
60292;SDS011;52402;52.670;6.750;2024-01-10T06:14:58;2.42;;;2.30;;
60292;SDS011;52402;52.670;6.750;2024-01-10T06:17:23;2.63;;;2.42;;
60292;SDS011;52402;52.670;6.750;2024-01-10T06:19:49;2.30;;;2.20;;
60292;SDS011;52402;52.670;6.750;2024-01-10T06:22:15;2.60;;;2.40;;
60292;SDS011;52402;52.670;6.750;2024-01-10T06:24:41;2.25;;;2.15;;
60292;SDS011;52402;52.670;6.750;2024-01-10T06:27:10;2.40;;;2.28;;
60292;SDS011;52402;52.670;6.750;2024-01-10T06:29:36;2.70;;;2.50;;
60292;SDS011;52402;52.670;6.750;2024-01-10T06:32:02;2.47;;;2.33;;
60292;SDS011;52402;52.670;6.750;2024-01-10T06:34:29;2.25;;;2.15;;
60292;SDS011;52402;52.670;6.750;2024-01-10T06:36:54;2.72;;;2.53;;
60292;SDS011;52402;52.670;6.750;2024-01-10T06:39:20;2.33;;;2.22;;
60292;SDS011;52402;52.670;6.750;2024-01-10T06:41:47;2.53;;;2.35;;
60292;SDS011;52402;52.670;6.750;2024-01-10T06:44:12;2.70;;;2.50;;
60292;SDS011;52402;52.670;6.750;2024-01-10T06:46:38;2.17;;;2.08;;
60292;SDS011;52402;52.670;6.750;2024-01-10T06:49:04;2.95;;;2.75;;
60292;SDS011;52402;52.670;6.750;2024-01-10T06:51:30;2.85;;;2.65;;
60292;SDS011;52402;52.670;6.750;2024-01-10T06:53:56;2.30;;;2.20;;
60292;SDS011;52402;52.670;6.750;2024-01-10T06:56:28;2.38;;;2.28;;
60292;SDS011;52402;52.670;6.750;2024-01-10T06:58:54;2.70;;;2.50;;
60292;SDS011;52402;52.670;6.750;2024-01-10T07:01:20;2.40;;;2.30;;
60292;SDS011;52402;52.670;6.750;2024-01-10T07:03:47;2.10;;;2.00;;
60292;SDS011;52402;52.670;6.750;2024-01-10T07:06:13;2.67;;;2.47;;
60292;SDS011;52402;52.670;6.750;2024-01-10T07:08:40;2.55;;;2.35;;
60292;SDS011;52402;52.670;6.750;2024-01-10T07:11:07;2.58;;;2.38;;
60292;SDS011;52402;52.670;6.750;2024-01-10T07:13:33;2.67;;;2.47;;
60292;SDS011;52402;52.670;6.750;2024-01-10T07:15:59;2.72;;;2.53;;
60292;SDS011;52402;52.670;6.750;2024-01-10T07:18:28;2.70;;;2.50;;
60292;SDS011;52402;52.670;6.750;2024-01-10T07:20:54;2.70;;;2.50;;
60292;SDS011;52402;52.670;6.750;2024-01-10T07:23:19;2.10;;;2.00;;
60292;SDS011;52402;52.670;6.750;2024-01-10T07:25:45;2.28;;;2.17;;
60292;SDS011;52402;52.670;6.750;2024-01-10T07:28:15;2.20;;;2.10;;
60292;SDS011;52402;52.670;6.750;2024-01-10T07:30:42;2.00;;;1.90;;
60292;SDS011;52402;52.670;6.750;2024-01-10T07:33:12;2.05;;;1.95;;
60292;SDS011;52402;52.670;6.750;2024-01-10T07:36:25;2.00;;;1.90;;
60292;SDS011;52402;52.670;6.750;2024-01-10T07:38:52;2.10;;;2.00;;
60292;SDS011;52402;52.670;6.750;2024-01-10T07:41:18;2.05;;;1.95;;
60292;SDS011;52402;52.670;6.750;2024-01-10T07:43:43;1.98;;;1.88;;
60292;SDS011;52402;52.670;6.750;2024-01-10T07:46:09;1.80;;;1.70;;
60292;SDS011;52402;52.670;6.750;2024-01-10T07:48:35;2.08;;;1.98;;
60292;SDS011;52402;52.670;6.750;2024-01-10T07:51:01;1.90;;;1.80;;
60292;SDS011;52402;52.670;6.750;2024-01-10T07:53:29;1.90;;;1.80;;
60292;SDS011;52402;52.670;6.750;2024-01-10T07:55:55;1.80;;;1.70;;
60292;SDS011;52402;52.670;6.750;2024-01-10T07:58:21;1.77;;;1.67;;
60292;SDS011;52402;52.670;6.750;2024-01-10T08:00:47;1.90;;;1.80;;
60292;SDS011;52402;52.670;6.750;2024-01-10T08:03:13;1.85;;;1.75;;
60292;SDS011;52402;52.670;6.750;2024-01-10T08:05:38;1.70;;;1.60;;
60292;SDS011;52402;52.670;6.750;2024-01-10T08:08:04;1.77;;;1.67;;
60292;SDS011;52402;52.670;6.750;2024-01-10T08:10:30;2.10;;;2.00;;
60292;SDS011;52402;52.670;6.750;2024-01-10T08:12:55;1.60;;;1.50;;
60292;SDS011;52402;52.670;6.750;2024-01-10T08:15:22;1.80;;;1.70;;
60292;SDS011;52402;52.670;6.750;2024-01-10T08:17:48;1.70;;;1.60;;
60292;SDS011;52402;52.670;6.750;2024-01-10T08:20:14;1.80;;;1.70;;
60292;SDS011;52402;52.670;6.750;2024-01-10T08:22:44;2.03;;;1.92;;
60292;SDS011;52402;52.670;6.750;2024-01-10T08:25:10;1.98;;;1.88;;
60292;SDS011;52402;52.670;6.750;2024-01-10T08:27:36;2.03;;;1.92;;
60292;SDS011;52402;52.670;6.750;2024-01-10T08:30:04;2.00;;;1.90;;
60292;SDS011;52402;52.670;6.750;2024-01-10T08:32:30;1.90;;;1.80;;
60292;SDS011;52402;52.670;6.750;2024-01-10T08:34:56;1.80;;;1.70;;
60292;SDS011;52402;52.670;6.750;2024-01-10T08:37:22;1.88;;;1.77;;
60292;SDS011;52402;52.670;6.750;2024-01-10T08:39:47;2.10;;;2.00;;
60292;SDS011;52402;52.670;6.750;2024-01-10T08:42:15;1.85;;;1.75;;
60292;SDS011;52402;52.670;6.750;2024-01-10T08:44:41;1.90;;;1.80;;
60292;SDS011;52402;52.670;6.750;2024-01-10T08:47:06;1.92;;;1.83;;
60292;SDS011;52402;52.670;6.750;2024-01-10T08:49:32;1.73;;;1.63;;
60292;SDS011;52402;52.670;6.750;2024-01-10T08:51:58;1.98;;;1.88;;
60292;SDS011;52402;52.670;6.750;2024-01-10T08:54:24;2.03;;;1.92;;
60292;SDS011;52402;52.670;6.750;2024-01-10T08:56:50;1.90;;;1.80;;
60292;SDS011;52402;52.670;6.750;2024-01-10T08:59:15;2.05;;;1.95;;
60292;SDS011;52402;52.670;6.750;2024-01-10T09:01:41;1.70;;;1.60;;
60292;SDS011;52402;52.670;6.750;2024-01-10T09:04:07;2.00;;;1.90;;
60292;SDS011;52402;52.670;6.750;2024-01-10T09:06:33;1.63;;;1.52;;
60292;SDS011;52402;52.670;6.750;2024-01-10T09:09:00;1.80;;;1.70;;
60292;SDS011;52402;52.670;6.750;2024-01-10T09:11:26;1.60;;;1.50;;
60292;SDS011;52402;52.670;6.750;2024-01-10T09:13:52;2.15;;;2.05;;
60292;SDS011;52402;52.670;6.750;2024-01-10T09:16:17;1.88;;;1.77;;
60292;SDS011;52402;52.670;6.750;2024-01-10T09:18:46;2.00;;;1.90;;
60292;SDS011;52402;52.670;6.750;2024-01-10T09:21:13;1.90;;;1.80;;
60292;SDS011;52402;52.670;6.750;2024-01-10T09:23:39;1.88;;;1.77;;
60292;SDS011;52402;52.670;6.750;2024-01-10T09:26:04;1.90;;;1.80;;
60292;SDS011;52402;52.670;6.750;2024-01-10T09:28:30;2.10;;;2.00;;
60292;SDS011;52402;52.670;6.750;2024-01-10T09:30:56;1.92;;;1.83;;
60292;SDS011;52402;52.670;6.750;2024-01-10T09:33:22;2.10;;;2.00;;
60292;SDS011;52402;52.670;6.750;2024-01-10T09:35:48;1.80;;;1.70;;
60292;SDS011;52402;52.670;6.750;2024-01-10T09:38:16;2.00;;;1.90;;
60292;SDS011;52402;52.670;6.750;2024-01-10T09:40:42;2.08;;;1.98;;
60292;SDS011;52402;52.670;6.750;2024-01-10T09:43:08;2.03;;;1.92;;
60292;SDS011;52402;52.670;6.750;2024-01-10T09:45:40;1.90;;;1.80;;
60292;SDS011;52402;52.670;6.750;2024-01-10T09:48:11;2.05;;;1.95;;
60292;SDS011;52402;52.670;6.750;2024-01-10T09:50:39;2.00;;;1.90;;
60292;SDS011;52402;52.670;6.750;2024-01-10T09:53:05;1.95;;;1.85;;
60292;SDS011;52402;52.670;6.750;2024-01-10T09:55:37;2.15;;;2.05;;
60292;SDS011;52402;52.670;6.750;2024-01-10T09:58:08;2.10;;;2.00;;
60292;SDS011;52402;52.670;6.750;2024-01-10T10:00:35;2.20;;;2.10;;
60292;SDS011;52402;52.670;6.750;2024-01-10T10:03:02;1.98;;;1.88;;
60292;SDS011;52402;52.670;6.750;2024-01-10T10:05:32;2.08;;;1.98;;
60292;SDS011;52402;52.670;6.750;2024-01-10T10:07:59;2.30;;;2.20;;
60292;SDS011;52402;52.670;6.750;2024-01-10T10:12:55;2.13;;;2.03;;
60292;SDS011;52402;52.670;6.750;2024-01-10T10:15:21;2.25;;;2.15;;
60292;SDS011;52402;52.670;6.750;2024-01-10T10:17:52;2.03;;;1.92;;
60292;SDS011;52402;52.670;6.750;2024-01-10T10:22:57;2.25;;;2.15;;
60292;SDS011;52402;52.670;6.750;2024-01-10T10:25:31;2.10;;;2.00;;
60292;SDS011;52402;52.670;6.750;2024-01-10T10:28:11;2.30;;;2.20;;
60292;SDS011;52402;52.670;6.750;2024-01-10T10:30:40;2.33;;;2.22;;
60292;SDS011;52402;52.670;6.750;2024-01-10T10:33:20;2.28;;;2.17;;
60292;SDS011;52402;52.670;6.750;2024-01-10T10:35:46;2.13;;;2.03;;
60292;SDS011;52402;52.670;6.750;2024-01-10T10:38:21;2.10;;;2.00;;
60292;SDS011;52402;52.670;6.750;2024-01-10T10:40:55;2.10;;;2.00;;
60292;SDS011;52402;52.670;6.750;2024-01-10T10:43:21;2.20;;;2.10;;
60292;SDS011;52402;52.670;6.750;2024-01-10T10:45:48;2.47;;;2.33;;
60292;SDS011;52402;52.670;6.750;2024-01-10T10:48:17;2.55;;;2.35;;
60292;SDS011;52402;52.670;6.750;2024-01-10T10:50:59;2.67;;;2.47;;
60292;SDS011;52402;52.670;6.750;2024-01-10T10:53:35;2.63;;;2.42;;
60292;SDS011;52402;52.670;6.750;2024-01-10T10:56:04;2.90;;;2.70;;
60292;SDS011;52402;52.670;6.750;2024-01-10T10:58:36;2.83;;;2.63;;
60292;SDS011;52402;52.670;6.750;2024-01-10T11:01:05;2.90;;;2.70;;
60292;SDS011;52402;52.670;6.750;2024-01-10T11:03:34;2.90;;;2.70;;
60292;SDS011;52402;52.670;6.750;2024-01-10T11:06:09;2.70;;;2.50;;
60292;SDS011;52402;52.670;6.750;2024-01-10T11:08:40;2.72;;;2.53;;
60292;SDS011;52402;52.670;6.750;2024-01-10T11:11:30;2.88;;;2.67;;
60292;SDS011;52402;52.670;6.750;2024-01-10T11:22:59;3.03;;;2.83;;
60292;SDS011;52402;52.670;6.750;2024-01-10T11:25:39;3.10;;;2.90;;
60292;SDS011;52402;52.670;6.750;2024-01-10T11:28:05;2.92;;;2.72;;
60292;SDS011;52402;52.670;6.750;2024-01-10T11:30:35;2.92;;;2.72;;
60292;SDS011;52402;52.670;6.750;2024-01-10T11:33:39;3.20;;;3.00;;
60292;SDS011;52402;52.670;6.750;2024-01-10T11:36:08;2.53;;;2.35;;
60292;SDS011;52402;52.670;6.750;2024-01-10T11:38:42;3.35;;;3.15;;
60292;SDS011;52402;52.670;6.750;2024-01-10T11:41:15;3.08;;;2.88;;
60292;SDS011;52402;52.670;6.750;2024-01-10T11:46:53;3.30;;;3.10;;
60292;SDS011;52402;52.670;6.750;2024-01-10T11:49:21;3.47;;;3.28;;
60292;SDS011;52402;52.670;6.750;2024-01-10T11:51:50;3.30;;;3.10;;
60292;SDS011;52402;52.670;6.750;2024-01-10T11:57:02;3.20;;;3.00;;
60292;SDS011;52402;52.670;6.750;2024-01-10T11:59:32;3.15;;;2.95;;
60292;SDS011;52402;52.670;6.750;2024-01-10T12:02:00;3.20;;;3.00;;
60292;SDS011;52402;52.670;6.750;2024-01-10T12:04:31;3.25;;;3.05;;
60292;SDS011;52402;52.670;6.750;2024-01-10T12:06:57;3.38;;;3.17;;
60292;SDS011;52402;52.670;6.750;2024-01-10T12:09:23;3.20;;;3.00;;
60292;SDS011;52402;52.670;6.750;2024-01-10T12:11:49;3.15;;;2.95;;
60292;SDS011;52402;52.670;6.750;2024-01-10T12:14:23;3.47;;;3.28;;
60292;SDS011;52402;52.670;6.750;2024-01-10T12:17:12;3.88;;;3.58;;
60292;SDS011;52402;52.670;6.750;2024-01-10T12:19:38;4.07;;;3.78;;
60292;SDS011;52402;52.670;6.750;2024-01-10T12:22:07;3.60;;;3.38;;
60292;SDS011;52402;52.670;6.750;2024-01-10T12:24:33;4.00;;;3.70;;
60292;SDS011;52402;52.670;6.750;2024-01-10T12:26:58;3.58;;;3.38;;
60292;SDS011;52402;52.670;6.750;2024-01-10T12:29:24;3.50;;;3.30;;
60292;SDS011;52402;52.670;6.750;2024-01-10T12:31:51;4.10;;;3.80;;
60292;SDS011;52402;52.670;6.750;2024-01-10T12:34:17;4.32;;;4.03;;
60292;SDS011;52402;52.670;6.750;2024-01-10T12:36:43;4.32;;;4.03;;
60292;SDS011;52402;52.670;6.750;2024-01-10T12:39:09;4.35;;;4.05;;
60292;SDS011;52402;52.670;6.750;2024-01-10T12:41:35;3.95;;;3.65;;
60292;SDS011;52402;52.670;6.750;2024-01-10T12:44:02;4.50;;;4.20;;
60292;SDS011;52402;52.670;6.750;2024-01-10T12:46:29;4.43;;;4.13;;
60292;SDS011;52402;52.670;6.750;2024-01-10T12:49:02;4.10;;;3.80;;
60292;SDS011;52402;52.670;6.750;2024-01-10T12:51:33;4.43;;;4.13;;
60292;SDS011;52402;52.670;6.750;2024-01-10T12:54:01;4.30;;;4.00;;
60292;SDS011;52402;52.670;6.750;2024-01-10T12:56:29;4.20;;;3.90;;
60292;SDS011;52402;52.670;6.750;2024-01-10T12:58:55;4.45;;;4.15;;
60292;SDS011;52402;52.670;6.750;2024-01-10T13:01:22;4.60;;;4.30;;
60292;SDS011;52402;52.670;6.750;2024-01-10T13:03:48;4.10;;;3.80;;
60292;SDS011;52402;52.670;6.750;2024-01-10T13:06:15;4.25;;;3.95;;
60292;SDS011;52402;52.670;6.750;2024-01-10T13:08:42;4.20;;;3.90;;
60292;SDS011;52402;52.670;6.750;2024-01-10T13:11:08;4.20;;;3.90;;
60292;SDS011;52402;52.670;6.750;2024-01-10T13:13:37;4.22;;;3.92;;
60292;SDS011;52402;52.670;6.750;2024-01-10T13:16:03;4.75;;;4.45;;
60292;SDS011;52402;52.670;6.750;2024-01-10T13:18:30;4.72;;;4.43;;
60292;SDS011;52402;52.670;6.750;2024-01-10T13:20:55;4.43;;;4.13;;
60292;SDS011;52402;52.670;6.750;2024-01-10T13:23:22;4.75;;;4.45;;
60292;SDS011;52402;52.670;6.750;2024-01-10T13:25:49;5.05;;;4.65;;
60292;SDS011;52402;52.670;6.750;2024-01-10T13:28:17;4.65;;;4.35;;
60292;SDS011;52402;52.670;6.750;2024-01-10T13:30:45;5.25;;;4.85;;
60292;SDS011;52402;52.670;6.750;2024-01-10T13:33:10;5.07;;;4.75;;
60292;SDS011;52402;52.670;6.750;2024-01-10T13:35:36;4.80;;;4.50;;
60292;SDS011;52402;52.670;6.750;2024-01-10T13:38:03;4.30;;;4.00;;
60292;SDS011;52402;52.670;6.750;2024-01-10T13:40:29;4.40;;;4.10;;
60292;SDS011;52402;52.670;6.750;2024-01-10T13:42:57;4.45;;;4.15;;
60292;SDS011;52402;52.670;6.750;2024-01-10T13:45:23;4.72;;;4.43;;
60292;SDS011;52402;52.670;6.750;2024-01-10T13:47:48;4.57;;;4.28;;
60292;SDS011;52402;52.670;6.750;2024-01-10T13:50:16;4.18;;;3.88;;
60292;SDS011;52402;52.670;6.750;2024-01-10T13:52:42;4.22;;;3.92;;
60292;SDS011;52402;52.670;6.750;2024-01-10T13:55:11;3.90;;;3.60;;
60292;SDS011;52402;52.670;6.750;2024-01-10T13:57:37;4.07;;;3.78;;
60292;SDS011;52402;52.670;6.750;2024-01-10T14:00:02;4.18;;;3.88;;
60292;SDS011;52402;52.670;6.750;2024-01-10T14:02:29;4.30;;;4.00;;
60292;SDS011;52402;52.670;6.750;2024-01-10T14:07:31;3.85;;;3.55;;
60292;SDS011;52402;52.670;6.750;2024-01-10T14:09:57;4.10;;;3.80;;
60292;SDS011;52402;52.670;6.750;2024-01-10T14:12:24;3.78;;;3.47;;
60292;SDS011;52402;52.670;6.750;2024-01-10T14:14:52;4.00;;;3.70;;
60292;SDS011;52402;52.670;6.750;2024-01-10T14:17:18;4.00;;;3.70;;
60292;SDS011;52402;52.670;6.750;2024-01-10T14:19:43;3.90;;;3.60;;
60292;SDS011;52402;52.670;6.750;2024-01-10T14:24:42;4.00;;;3.70;;
60292;SDS011;52402;52.670;6.750;2024-01-10T14:27:08;3.50;;;3.30;;
60292;SDS011;52402;52.670;6.750;2024-01-10T14:29:34;3.20;;;3.00;;
60292;SDS011;52402;52.670;6.750;2024-01-10T14:32:00;3.30;;;3.10;;
60292;SDS011;52402;52.670;6.750;2024-01-10T14:34:25;3.42;;;3.22;;
60292;SDS011;52402;52.670;6.750;2024-01-10T14:36:51;3.50;;;3.30;;
60292;SDS011;52402;52.670;6.750;2024-01-10T14:39:17;3.75;;;3.45;;
60292;SDS011;52402;52.670;6.750;2024-01-10T14:41:43;3.45;;;3.25;;
60292;SDS011;52402;52.670;6.750;2024-01-10T14:44:09;3.70;;;3.40;;
60292;SDS011;52402;52.670;6.750;2024-01-10T14:46:35;3.40;;;3.20;;
60292;SDS011;52402;52.670;6.750;2024-01-10T14:49:01;3.13;;;2.92;;
60292;SDS011;52402;52.670;6.750;2024-01-10T14:51:27;3.20;;;3.00;;
60292;SDS011;52402;52.670;6.750;2024-01-10T14:53:56;3.22;;;3.03;;
60292;SDS011;52402;52.670;6.750;2024-01-10T14:56:21;2.88;;;2.67;;
60292;SDS011;52402;52.670;6.750;2024-01-10T14:58:48;3.30;;;3.10;;
60292;SDS011;52402;52.670;6.750;2024-01-10T15:01:18;3.20;;;3.00;;
60292;SDS011;52402;52.670;6.750;2024-01-10T15:03:45;2.92;;;2.72;;
60292;SDS011;52402;52.670;6.750;2024-01-10T15:06:11;3.20;;;3.00;;
60292;SDS011;52402;52.670;6.750;2024-01-10T15:08:40;3.10;;;2.90;;
60292;SDS011;52402;52.670;6.750;2024-01-10T15:11:06;3.38;;;3.17;;
60292;SDS011;52402;52.670;6.750;2024-01-10T15:13:36;3.65;;;3.40;;
60292;SDS011;52402;52.670;6.750;2024-01-10T15:16:02;3.00;;;2.80;;
60292;SDS011;52402;52.670;6.750;2024-01-10T15:18:28;2.88;;;2.67;;